sensor_id;sensor_type;location;lat;lon;timestamp;P1;durP1;ratioP1;P2;durP2;ratioP2
21517;SDS011;61765;45.794;24.150;2023-04-24T00:02:05;9.23;;;5.88;;
21517;SDS011;61765;45.794;24.150;2023-04-24T00:10:15;5.35;;;4.85;;
21517;SDS011;61765;45.794;24.150;2023-04-24T00:18:21;9.32;;;5.88;;
21517;SDS011;61765;45.794;24.150;2023-04-24T00:26:29;8.15;;;5.38;;
21517;SDS011;61765;45.794;24.150;2023-04-24T00:34:34;6.85;;;5.40;;
21517;SDS011;61765;45.794;24.150;2023-04-24T00:42:42;6.15;;;4.97;;
21517;SDS011;61765;45.794;24.150;2023-04-24T00:50:49;7.18;;;4.95;;
21517;SDS011;61765;45.794;24.150;2023-04-24T00:58:57;6.50;;;4.93;;
21517;SDS011;61765;45.794;24.150;2023-04-24T01:07:03;7.80;;;5.38;;
21517;SDS011;61765;45.794;24.150;2023-04-24T01:15:17;7.90;;;4.80;;
21517;SDS011;61765;45.794;24.150;2023-04-24T01:23:26;5.63;;;5.10;;
21517;SDS011;61765;45.794;24.150;2023-04-24T01:31:31;7.38;;;4.70;;
21517;SDS011;61765;45.794;24.150;2023-04-24T01:39:40;5.85;;;4.32;;
21517;SDS011;61765;45.794;24.150;2023-04-24T01:47:46;8.05;;;4.72;;
21517;SDS011;61765;45.794;24.150;2023-04-24T01:55:54;7.35;;;4.85;;
21517;SDS011;61765;45.794;24.150;2023-04-24T02:04:00;7.38;;;5.10;;
21517;SDS011;61765;45.794;24.150;2023-04-24T02:12:08;8.10;;;5.22;;
21517;SDS011;61765;45.794;24.150;2023-04-24T02:20:14;7.45;;;5.30;;
21517;SDS011;61765;45.794;24.150;2023-04-24T02:28:22;6.90;;;5.22;;
21517;SDS011;61765;45.794;24.150;2023-04-24T02:36:27;6.88;;;5.18;;
21517;SDS011;61765;45.794;24.150;2023-04-24T02:44:36;7.47;;;4.97;;
21517;SDS011;61765;45.794;24.150;2023-04-24T02:52:42;7.20;;;5.38;;
21517;SDS011;61765;45.794;24.150;2023-04-24T03:00:51;6.78;;;5.30;;
21517;SDS011;61765;45.794;24.150;2023-04-24T03:08:58;10.60;;;5.95;;
21517;SDS011;61765;45.794;24.150;2023-04-24T03:17:08;8.73;;;6.88;;
21517;SDS011;61765;45.794;24.150;2023-04-24T03:25:14;11.13;;;6.22;;
21517;SDS011;61765;45.794;24.150;2023-04-24T03:33:22;10.32;;;5.95;;
21517;SDS011;61765;45.794;24.150;2023-04-24T03:41:33;7.80;;;5.57;;
21517;SDS011;61765;45.794;24.150;2023-04-24T03:49:53;10.18;;;7.00;;
21517;SDS011;61765;45.794;24.150;2023-04-24T03:57:59;11.80;;;7.50;;
21517;SDS011;61765;45.794;24.150;2023-04-24T04:06:07;11.00;;;7.95;;
21517;SDS011;61765;45.794;24.150;2023-04-24T04:14:15;12.25;;;8.10;;
21517;SDS011;61765;45.794;24.150;2023-04-24T04:22:24;12.50;;;8.32;;
21517;SDS011;61765;45.794;24.150;2023-04-24T04:30:33;11.98;;;8.65;;
21517;SDS011;61765;45.794;24.150;2023-04-24T04:38:42;11.70;;;7.97;;
21517;SDS011;61765;45.794;24.150;2023-04-24T04:47:00;13.15;;;8.68;;
21517;SDS011;61765;45.794;24.150;2023-04-24T04:55:12;15.20;;;8.07;;
21517;SDS011;61765;45.794;24.150;2023-04-24T05:03:37;18.15;;;9.73;;
21517;SDS011;61765;45.794;24.150;2023-04-24T05:11:48;20.02;;;9.60;;
21517;SDS011;61765;45.794;24.150;2023-04-24T05:19:56;13.30;;;9.45;;
21517;SDS011;61765;45.794;24.150;2023-04-24T05:28:06;10.65;;;9.02;;
21517;SDS011;61765;45.794;24.150;2023-04-24T05:36:12;16.63;;;11.40;;
21517;SDS011;61765;45.794;24.150;2023-04-24T05:44:21;17.85;;;10.45;;
21517;SDS011;61765;45.794;24.150;2023-04-24T05:52:27;18.23;;;9.32;;
21517;SDS011;61765;45.794;24.150;2023-04-24T06:00:38;16.52;;;10.02;;
21517;SDS011;61765;45.794;24.150;2023-04-24T06:08:46;17.52;;;10.25;;
21517;SDS011;61765;45.794;24.150;2023-04-24T06:16:54;13.80;;;6.97;;
21517;SDS011;61765;45.794;24.150;2023-04-24T06:25:09;12.52;;;6.05;;
21517;SDS011;61765;45.794;24.150;2023-04-24T06:33:17;7.15;;;3.40;;
21517;SDS011;61765;45.794;24.150;2023-04-24T06:41:24;5.75;;;3.58;;
21517;SDS011;61765;45.794;24.150;2023-04-24T06:49:32;4.53;;;3.40;;
21517;SDS011;61765;45.794;24.150;2023-04-24T06:57:38;6.32;;;4.05;;
21517;SDS011;61765;45.794;24.150;2023-04-24T07:05:47;5.10;;;3.47;;
21517;SDS011;61765;45.794;24.150;2023-04-24T07:13:55;5.70;;;3.58;;
21517;SDS011;61765;45.794;24.150;2023-04-24T07:22:03;7.28;;;4.35;;
21517;SDS011;61765;45.794;24.150;2023-04-24T07:30:09;8.05;;;4.30;;
21517;SDS011;61765;45.794;24.150;2023-04-24T07:38:18;9.60;;;4.15;;
21517;SDS011;61765;45.794;24.150;2023-04-24T07:46:27;10.13;;;3.70;;
21517;SDS011;61765;45.794;24.150;2023-04-24T07:54:37;6.57;;;4.22;;
21517;SDS011;61765;45.794;24.150;2023-04-24T08:02:43;7.32;;;3.67;;
21517;SDS011;61765;45.794;24.150;2023-04-24T08:10:51;8.68;;;3.70;;
21517;SDS011;61765;45.794;24.150;2023-04-24T08:18:58;7.07;;;3.50;;
21517;SDS011;61765;45.794;24.150;2023-04-24T08:27:07;10.05;;;4.20;;
21517;SDS011;61765;45.794;24.150;2023-04-24T08:35:13;10.80;;;3.80;;
21517;SDS011;61765;45.794;24.150;2023-04-24T08:43:21;7.28;;;3.00;;
21517;SDS011;61765;45.794;24.150;2023-04-24T08:51:27;9.43;;;4.07;;
21517;SDS011;61765;45.794;24.150;2023-04-24T08:59:38;7.63;;;3.20;;
21517;SDS011;61765;45.794;24.150;2023-04-24T09:07:45;4.93;;;3.20;;
21517;SDS011;61765;45.794;24.150;2023-04-24T09:15:56;9.15;;;3.70;;
21517;SDS011;61765;45.794;24.150;2023-04-24T09:24:03;7.47;;;3.42;;
21517;SDS011;61765;45.794;24.150;2023-04-24T09:32:22;6.45;;;3.58;;
21517;SDS011;61765;45.794;24.150;2023-04-24T09:40:34;7.25;;;3.53;;
21517;SDS011;61765;45.794;24.150;2023-04-24T09:48:44;12.05;;;4.28;;
21517;SDS011;61765;45.794;24.150;2023-04-24T09:56:51;7.05;;;3.85;;
21517;SDS011;61765;45.794;24.150;2023-04-24T10:04:59;6.68;;;3.58;;
21517;SDS011;61765;45.794;24.150;2023-04-24T10:13:05;6.10;;;3.13;;
21517;SDS011;61765;45.794;24.150;2023-04-24T10:21:14;7.93;;;4.07;;
21517;SDS011;61765;45.794;24.150;2023-04-24T11:29:58;6.80;;;3.20;;
21517;SDS011;61765;45.794;24.150;2023-04-24T11:38:05;5.43;;;3.03;;
21517;SDS011;61765;45.794;24.150;2023-04-24T11:46:19;7.63;;;3.38;;
21517;SDS011;61765;45.794;24.150;2023-04-24T11:54:26;5.72;;;3.22;;
21517;SDS011;61765;45.794;24.150;2023-04-24T12:02:34;7.95;;;3.25;;
21517;SDS011;61765;45.794;24.150;2023-04-24T12:10:40;8.23;;;3.25;;
21517;SDS011;61765;45.794;24.150;2023-04-24T12:18:50;9.85;;;3.40;;
21517;SDS011;61765;45.794;24.150;2023-04-24T12:26:56;5.55;;;3.03;;
21517;SDS011;61765;45.794;24.150;2023-04-24T12:35:06;6.13;;;3.25;;
21517;SDS011;61765;45.794;24.150;2023-04-24T12:43:13;6.07;;;3.03;;
21517;SDS011;61765;45.794;24.150;2023-04-24T12:51:23;7.88;;;3.35;;
21517;SDS011;61765;45.794;24.150;2023-04-24T12:59:29;7.28;;;3.30;;
21517;SDS011;61765;45.794;24.150;2023-04-24T13:07:37;5.47;;;3.03;;
21517;SDS011;61765;45.794;24.150;2023-04-24T13:15:42;6.55;;;3.70;;
21517;SDS011;61765;45.794;24.150;2023-04-24T13:23:50;7.60;;;3.50;;
21517;SDS011;61765;45.794;24.150;2023-04-24T13:31:56;4.75;;;3.22;;
21517;SDS011;61765;45.794;24.150;2023-04-24T13:40:05;11.73;;;4.28;;
21517;SDS011;61765;45.794;24.150;2023-04-24T13:48:11;9.98;;;4.85;;
21517;SDS011;61765;45.794;24.150;2023-04-24T13:56:19;9.15;;;4.88;;
21517;SDS011;61765;45.794;24.150;2023-04-24T14:04:25;9.32;;;5.90;;
21517;SDS011;61765;45.794;24.150;2023-04-24T14:12:34;10.45;;;6.15;;
21517;SDS011;61765;45.794;24.150;2023-04-24T14:20:39;12.43;;;7.00;;
21517;SDS011;61765;45.794;24.150;2023-04-24T14:28:47;7.78;;;4.60;;
21517;SDS011;61765;45.794;24.150;2023-04-24T14:37:08;7.85;;;4.97;;
21517;SDS011;61765;45.794;24.150;2023-04-24T14:45:16;9.93;;;5.60;;
21517;SDS011;61765;45.794;24.150;2023-04-24T14:53:22;7.32;;;4.30;;
21517;SDS011;61765;45.794;24.150;2023-04-24T15:01:30;7.80;;;4.30;;
21517;SDS011;61765;45.794;24.150;2023-04-24T15:09:36;8.63;;;3.22;;
21517;SDS011;61765;45.794;24.150;2023-04-24T15:17:44;47.53;;;13.18;;
21517;SDS011;61765;45.794;24.150;2023-04-24T15:25:50;10.27;;;4.70;;
21517;SDS011;61765;45.794;24.150;2023-04-24T15:33:58;10.07;;;4.90;;
21517;SDS011;61765;45.794;24.150;2023-04-24T15:42:19;9.50;;;4.50;;
21517;SDS011;61765;45.794;24.150;2023-04-24T15:50:30;11.55;;;6.40;;
21517;SDS011;61765;45.794;24.150;2023-04-24T15:58:36;9.30;;;4.78;;
21517;SDS011;61765;45.794;24.150;2023-04-24T16:06:44;9.20;;;4.85;;
21517;SDS011;61765;45.794;24.150;2023-04-24T16:14:50;7.80;;;5.15;;
21517;SDS011;61765;45.794;24.150;2023-04-24T16:22:58;10.25;;;5.18;;
21517;SDS011;61765;45.794;24.150;2023-04-24T16:31:04;5.68;;;4.65;;
21517;SDS011;61765;45.794;24.150;2023-04-24T16:39:22;8.77;;;4.85;;
21517;SDS011;61765;45.794;24.150;2023-04-24T16:47:28;8.85;;;5.40;;
21517;SDS011;61765;45.794;24.150;2023-04-24T16:55:37;7.78;;;4.82;;
21517;SDS011;61765;45.794;24.150;2023-04-24T17:03:45;8.73;;;4.97;;
21517;SDS011;61765;45.794;24.150;2023-04-24T17:11:54;8.45;;;5.43;;
21517;SDS011;61765;45.794;24.150;2023-04-24T17:20:00;12.55;;;6.22;;
21517;SDS011;61765;45.794;24.150;2023-04-24T17:28:25;9.82;;;5.53;;
21517;SDS011;61765;45.794;24.150;2023-04-24T17:36:32;8.30;;;5.40;;
21517;SDS011;61765;45.794;24.150;2023-04-24T17:44:41;9.23;;;6.30;;
21517;SDS011;61765;45.794;24.150;2023-04-24T17:52:48;8.70;;;5.72;;
21517;SDS011;61765;45.794;24.150;2023-04-24T18:00:56;11.98;;;6.75;;
21517;SDS011;61765;45.794;24.150;2023-04-24T18:09:02;10.98;;;5.65;;
21517;SDS011;61765;45.794;24.150;2023-04-24T18:17:10;7.88;;;5.22;;
21517;SDS011;61765;45.794;24.150;2023-04-24T18:25:16;5.93;;;4.85;;
21517;SDS011;61765;45.794;24.150;2023-04-24T18:33:30;8.98;;;5.35;;
21517;SDS011;61765;45.794;24.150;2023-04-24T18:41:35;7.97;;;4.82;;
21517;SDS011;61765;45.794;24.150;2023-04-24T18:49:44;7.90;;;5.18;;
21517;SDS011;61765;45.794;24.150;2023-04-24T18:57:49;12.18;;;6.15;;
21517;SDS011;61765;45.794;24.150;2023-04-24T19:05:58;10.20;;;5.60;;
21517;SDS011;61765;45.794;24.150;2023-04-24T19:14:03;11.32;;;6.15;;
21517;SDS011;61765;45.794;24.150;2023-04-24T19:22:12;9.77;;;5.63;;
21517;SDS011;61765;45.794;24.150;2023-04-24T19:30:17;9.73;;;5.50;;
21517;SDS011;61765;45.794;24.150;2023-04-24T19:38:25;8.18;;;4.75;;
21517;SDS011;61765;45.794;24.150;2023-04-24T19:46:31;9.13;;;5.78;;
21517;SDS011;61765;45.794;24.150;2023-04-24T19:54:39;8.48;;;5.32;;
21517;SDS011;61765;45.794;24.150;2023-04-24T20:02:45;10.05;;;5.18;;
21517;SDS011;61765;45.794;24.150;2023-04-24T20:10:53;9.65;;;5.72;;
21517;SDS011;61765;45.794;24.150;2023-04-24T20:18:59;9.23;;;5.82;;
21517;SDS011;61765;45.794;24.150;2023-04-24T20:27:07;9.27;;;5.90;;
21517;SDS011;61765;45.794;24.150;2023-04-24T20:35:14;8.02;;;6.20;;
21517;SDS011;61765;45.794;24.150;2023-04-24T20:43:22;11.15;;;6.78;;
21517;SDS011;61765;45.794;24.150;2023-04-24T20:51:30;10.27;;;6.85;;
21517;SDS011;61765;45.794;24.150;2023-04-24T20:59:39;8.48;;;7.45;;
21517;SDS011;61765;45.794;24.150;2023-04-24T21:07:44;14.80;;;7.18;;
21517;SDS011;61765;45.794;24.150;2023-04-24T21:15:57;8.65;;;6.22;;
21517;SDS011;61765;45.794;24.150;2023-04-24T21:24:03;8.25;;;7.22;;
21517;SDS011;61765;45.794;24.150;2023-04-24T21:32:12;8.63;;;7.70;;
21517;SDS011;61765;45.794;24.150;2023-04-24T21:40:17;9.48;;;7.30;;
21517;SDS011;61765;45.794;24.150;2023-04-24T21:48:26;12.98;;;7.90;;
21517;SDS011;61765;45.794;24.150;2023-04-24T21:56:32;12.07;;;8.88;;
21517;SDS011;61765;45.794;24.150;2023-04-24T22:04:40;15.55;;;10.73;;
21517;SDS011;61765;45.794;24.150;2023-04-24T22:12:46;13.88;;;10.27;;
21517;SDS011;61765;45.794;24.150;2023-04-24T22:20:54;31.75;;;26.33;;
21517;SDS011;61765;45.794;24.150;2023-04-24T22:29:01;30.15;;;23.38;;
21517;SDS011;61765;45.794;24.150;2023-04-24T22:37:10;22.23;;;19.08;;
21517;SDS011;61765;45.794;24.150;2023-04-24T22:45:15;14.75;;;12.50;;
21517;SDS011;61765;45.794;24.150;2023-04-24T22:53:27;11.98;;;9.23;;
21517;SDS011;61765;45.794;24.150;2023-04-24T23:01:32;19.45;;;11.35;;
21517;SDS011;61765;45.794;24.150;2023-04-24T23:09:40;15.77;;;12.05;;
21517;SDS011;61765;45.794;24.150;2023-04-24T23:17:46;13.48;;;12.00;;
21517;SDS011;61765;45.794;24.150;2023-04-24T23:25:54;16.05;;;13.77;;
21517;SDS011;61765;45.794;24.150;2023-04-24T23:34:00;17.95;;;12.40;;
21517;SDS011;61765;45.794;24.150;2023-04-24T23:42:09;17.40;;;13.30;;
21517;SDS011;61765;45.794;24.150;2023-04-24T23:50:14;19.20;;;14.30;;
21517;SDS011;61765;45.794;24.150;2023-04-24T23:58:22;20.15;;;14.63;;
